sensor_id;sensor_type;location;lat;lon;timestamp;pressure;altitude;pressure_sealevel;temperature;humidity
61880;BME280;47817;52.798;27.544;2023-05-25T00:02:05;1023.9;;;20.9;41.2
61880;BME280;47817;52.798;27.544;2023-05-25T00:07:13;1023.9;;;20.8;41.2
61880;BME280;47817;52.798;27.544;2023-05-25T00:11:27;1023.9;;;20.7;41.3
61880;BME280;47817;52.798;27.544;2023-05-25T00:17:13;1023.9;;;20.5;42.1
61880;BME280;47817;52.798;27.544;2023-05-25T00:21:33;1023.9;;;20.3;42.3
61880;BME280;47817;52.798;27.544;2023-05-25T00:26:27;1023.9;;;20.2;42.4
61880;BME280;47817;52.798;27.544;2023-05-25T00:31:49;1023.9;;;20.1;42.9
61880;BME280;47817;52.798;27.544;2023-05-25T00:37:05;1023.9;;;19.9;42.7
61880;BME280;47817;52.798;27.544;2023-05-25T00:42:13;1023.9;;;19.8;43.4
61880;BME280;47817;52.798;27.544;2023-05-25T00:47:13;1023.9;;;19.6;43.6
61880;BME280;47817;52.798;27.544;2023-05-25T00:52:13;1023.8;;;19.5;43.7
61880;BME280;47817;52.798;27.544;2023-05-25T00:56:44;1023.9;;;19.3;44.5
61880;BME280;47817;52.798;27.544;2023-05-25T01:01:45;1023.9;;;19.3;45.2
61880;BME280;47817;52.798;27.544;2023-05-25T01:06:49;1023.9;;;19.3;45
61880;BME280;47817;52.798;27.544;2023-05-25T01:11:59;1023.8;;;19.2;45.2
61880;BME280;47817;52.798;27.544;2023-05-25T01:16:27;1023.8;;;19.1;44.7
61880;BME280;47817;52.798;27.544;2023-05-25T01:22:07;1023.8;;;19;45.3
61880;BME280;47817;52.798;27.544;2023-05-25T01:27:01;1023.8;;;18.9;45.9
61880;BME280;47817;52.798;27.544;2023-05-25T01:32:13;1023.8;;;18.9;46.2
61880;BME280;47817;52.798;27.544;2023-05-25T01:36:27;1023.8;;;18.8;46.1
61880;BME280;47817;52.798;27.544;2023-05-25T01:41:27;1023.8;;;18.8;46.4
61880;BME280;47817;52.798;27.544;2023-05-25T01:47:01;1023.8;;;18.8;46.6
61880;BME280;47817;52.798;27.544;2023-05-25T01:51:29;1023.8;;;18.8;46.2
61880;BME280;47817;52.798;27.544;2023-05-25T01:57:16;1023.8;;;18.8;46
61880;BME280;47817;52.798;27.544;2023-05-25T02:02:16;1023.8;;;18.7;46.2
61880;BME280;47817;52.798;27.544;2023-05-25T02:06:50;1023.8;;;18.7;46.3
61880;BME280;47817;52.798;27.544;2023-05-25T02:11:59;1023.8;;;18.7;46.4
61880;BME280;47817;52.798;27.544;2023-05-25T02:16:53;1023.8;;;18.6;46.5
61880;BME280;47817;52.798;27.544;2023-05-25T02:21:45;1023.9;;;18.5;47.3
61880;BME280;47817;52.798;27.544;2023-05-25T02:27:01;1023.9;;;18.5;47.3
61880;BME280;47817;52.798;27.544;2023-05-25T02:32:01;1023.9;;;18.6;47.4
61880;BME280;47817;52.798;27.544;2023-05-25T02:37:15;1023.9;;;18.6;47.5
61880;BME280;47817;52.798;27.544;2023-05-25T02:41:27;1024;;;18.6;47.7
61880;BME280;47817;52.798;27.544;2023-05-25T02:47:15;1024;;;18.7;47.7
61880;BME280;47817;52.798;27.544;2023-05-25T02:52:17;1024.1;;;18.9;47.8
61880;BME280;47817;52.798;27.544;2023-05-25T02:56:39;1024.1;;;19.1;47.5
61880;BME280;47817;52.798;27.544;2023-05-25T03:02:15;1024.2;;;19.4;47.4
61880;BME280;47817;52.798;27.544;2023-05-25T03:07:07;1024.3;;;19.5;47.3
61880;BME280;47817;52.798;27.544;2023-05-25T03:11:39;1024.2;;;19.4;47
61880;BME280;47817;52.798;27.544;2023-05-25T03:16:59;1024.3;;;19.4;46.9
61880;BME280;47817;52.798;27.544;2023-05-25T03:21:27;1024.3;;;19.7;46.5
61880;BME280;47817;52.798;27.544;2023-05-25T03:26:27;1024.3;;;19.8;46.1
61880;BME280;47817;52.798;27.544;2023-05-25T03:32:07;1024.3;;;19.9;46.1
61880;BME280;47817;52.798;27.544;2023-05-25T03:36:41;1024.3;;;20;46
61880;BME280;47817;52.798;27.544;2023-05-25T03:42:01;1024.4;;;20.3;45.6
61880;BME280;47817;52.798;27.544;2023-05-25T03:46:27;1024.4;;;20.5;45.6
61880;BME280;47817;52.798;27.544;2023-05-25T03:52:15;1024.5;;;20.6;45.3
61880;BME280;47817;52.798;27.544;2023-05-25T03:56:59;1024.5;;;20.6;45.2
61880;BME280;47817;52.798;27.544;2023-05-25T04:01:39;1024.5;;;20.5;45.1
61880;BME280;47817;52.798;27.544;2023-05-25T04:07:15;1024.5;;;20.4;45.6
61880;BME280;47817;52.798;27.544;2023-05-25T04:12:15;1024.6;;;20.4;45.7
61880;BME280;47817;52.798;27.544;2023-05-25T04:17:15;1024.6;;;20.3;46.3
61880;BME280;47817;52.798;27.544;2023-05-25T04:21:27;1024.6;;;20.2;46.6
61880;BME280;47817;52.798;27.544;2023-05-25T04:27:01;1024.7;;;20.3;47
61880;BME280;47817;52.798;27.544;2023-05-25T04:31:47;1024.7;;;20.4;46.8
61880;BME280;47817;52.798;27.544;2023-05-25T04:36:47;1024.7;;;20.6;47.1
61880;BME280;47817;52.798;27.544;2023-05-25T04:41:51;1024.6;;;20.8;47.1
61880;BME280;47817;52.798;27.544;2023-05-25T04:46:53;1024.6;;;21;46.7
61880;BME280;47817;52.798;27.544;2023-05-25T04:51:39;1024.7;;;21.2;47.2
61880;BME280;47817;52.798;27.544;2023-05-25T04:57:17;1024.7;;;21.4;47.4
61880;BME280;47817;52.798;27.544;2023-05-25T05:02:01;1024.7;;;21.5;47.9
61880;BME280;47817;52.798;27.544;2023-05-25T05:07:15;1024.7;;;21.7;47.9
61880;BME280;47817;52.798;27.544;2023-05-25T05:11:53;1024.7;;;21.9;47.6
61880;BME280;47817;52.798;27.544;2023-05-25T05:16:53;1024.7;;;22;47.1
61880;BME280;47817;52.798;27.544;2023-05-25T05:21:29;1024.7;;;22.3;46.2
61880;BME280;47817;52.798;27.544;2023-05-25T05:26:41;1024.7;;;22.5;45.2
61880;BME280;47817;52.798;27.544;2023-05-25T05:32:15;1024.8;;;22.9;44.2
61880;BME280;47817;52.798;27.544;2023-05-25T05:37:05;1024.7;;;23.2;43
61880;BME280;47817;52.798;27.544;2023-05-25T05:41:41;1024.7;;;23.6;42.4
61880;BME280;47817;52.798;27.544;2023-05-25T05:46:59;1024.7;;;24;41.7
61880;BME280;47817;52.798;27.544;2023-05-25T05:51:39;1024.8;;;24.3;41.2
61880;BME280;47817;52.798;27.544;2023-05-25T05:56:45;1024.8;;;24.7;40.4
61880;BME280;47817;52.798;27.544;2023-05-25T06:01:55;1024.7;;;25.1;39.8
61880;BME280;47817;52.798;27.544;2023-05-25T06:06:55;1024.8;;;25.5;38.2
61880;BME280;47817;52.798;27.544;2023-05-25T06:12:01;1024.7;;;25.8;38.1
61880;BME280;47817;52.798;27.544;2023-05-25T06:16:41;1024.7;;;26.1;37.1
61880;BME280;47817;52.798;27.544;2023-05-25T06:22:15;1024.7;;;26;36.7
61880;BME280;47817;52.798;27.544;2023-05-25T06:27:13;1024.7;;;26.1;36.1
61880;BME280;47817;52.798;27.544;2023-05-25T06:31:27;1024.7;;;26.4;35.8
61880;BME280;47817;52.798;27.544;2023-05-25T06:36:51;1024.6;;;26.8;35.1
61880;BME280;47817;52.798;27.544;2023-05-25T06:42:13;1024.6;;;27.1;34.6
61880;BME280;47817;52.798;27.544;2023-05-25T06:47:15;1024.6;;;27.2;34.4
61880;BME280;47817;52.798;27.544;2023-05-25T06:51:27;1024.7;;;27.3;34.1
61880;BME280;47817;52.798;27.544;2023-05-25T06:57:01;1024.6;;;27.3;34.3
61880;BME280;47817;52.798;27.544;2023-05-25T07:01:27;1024.6;;;27.5;34.3
61880;BME280;47817;52.798;27.544;2023-05-25T07:07:03;1024.7;;;27.5;34.1
61880;BME280;47817;52.798;27.544;2023-05-25T07:11:51;1024.7;;;27.5;34.3
61880;BME280;47817;52.798;27.544;2023-05-25T07:17:17;1024.7;;;27.5;33.9
61880;BME280;47817;52.798;27.544;2023-05-25T07:21:39;1024.7;;;27.8;33.7
61880;BME280;47817;52.798;27.544;2023-05-25T07:27:07;1024.7;;;28.2;32.8
61880;BME280;47817;52.798;27.544;2023-05-25T07:31:59;1024.8;;;28.4;32.5
61880;BME280;47817;52.798;27.544;2023-05-25T07:37:15;1024.8;;;28.3;31.4
61880;BME280;47817;52.798;27.544;2023-05-25T07:41:51;1024.8;;;28.4;30.8
61880;BME280;47817;52.798;27.544;2023-05-25T07:46:53;1024.8;;;28.6;30.4
61880;BME280;47817;52.798;27.544;2023-05-25T07:51:59;1024.8;;;28.9;29.9
61880;BME280;47817;52.798;27.544;2023-05-25T07:56:27;1024.8;;;29;30
61880;BME280;47817;52.798;27.544;2023-05-25T08:02:07;1024.8;;;29.1;30
61880;BME280;47817;52.798;27.544;2023-05-25T08:07:13;1024.8;;;29.4;29.8
61880;BME280;47817;52.798;27.544;2023-05-25T08:11:27;1024.8;;;29;30.3
61880;BME280;47817;52.798;27.544;2023-05-25T08:16:59;1024.8;;;28.7;30.7
61880;BME280;47817;52.798;27.544;2023-05-25T08:21:39;1024.8;;;28.2;31
61880;BME280;47817;52.798;27.544;2023-05-25T08:26:45;1024.9;;;27.9;31.7
61880;BME280;47817;52.798;27.544;2023-05-25T08:32:13;1024.9;;;27.5;32.5
61880;BME280;47817;52.798;27.544;2023-05-25T08:37:07;1024.9;;;27.2;33.3
61880;BME280;47817;52.798;27.544;2023-05-25T08:42:15;1024.9;;;27;33.7
61880;BME280;47817;52.798;27.544;2023-05-25T08:46:28;1025;;;26.8;34.2
61880;BME280;47817;52.798;27.544;2023-05-25T08:51:59;1024.9;;;26.6;34.6
61880;BME280;47817;52.798;27.544;2023-05-25T08:56:42;1024.9;;;26.5;35.2
61880;BME280;47817;52.798;27.544;2023-05-25T09:01:40;1024.9;;;26.7;34.9
61880;BME280;47817;52.798;27.544;2023-05-25T09:06:39;1024.8;;;27;33.8
61880;BME280;47817;52.798;27.544;2023-05-25T09:12:07;1024.8;;;27.2;33.5
61880;BME280;47817;52.798;27.544;2023-05-25T09:17:13;1024.8;;;27.4;33.7
61880;BME280;47817;52.798;27.544;2023-05-25T09:22:15;1024.9;;;27.7;33.7
61880;BME280;47817;52.798;27.544;2023-05-25T09:27:16;1024.8;;;27.7;32.6
61880;BME280;47817;52.798;27.544;2023-05-25T09:31:45;1024.8;;;27.7;32.5
61880;BME280;47817;52.798;27.544;2023-05-25T09:36:27;1024.8;;;27.8;32.3
61880;BME280;47817;52.798;27.544;2023-05-25T09:41:51;1024.8;;;27.7;31.4
61880;BME280;47817;52.798;27.544;2023-05-25T09:47:15;1024.8;;;27.6;31.2
61880;BME280;47817;52.798;27.544;2023-05-25T09:51:27;1024.8;;;27.5;31.3
61880;BME280;47817;52.798;27.544;2023-05-25T09:57:07;1024.7;;;27.8;30.2
61880;BME280;47817;52.798;27.544;2023-05-25T10:01:59;1024.7;;;28.5;28.9
61880;BME280;47817;52.798;27.544;2023-05-25T10:07:15;1024.6;;;28.7;28.3
61880;BME280;47817;52.798;27.544;2023-05-25T10:11:59;1024.6;;;29.3;27.6
61880;BME280;47817;52.798;27.544;2023-05-25T10:16:27;1024.6;;;29.8;27.1
61880;BME280;47817;52.798;27.544;2023-05-25T10:22:00;1024.5;;;29.8;26.4
61880;BME280;47817;52.798;27.544;2023-05-25T10:26:39;1024.4;;;29.9;26.5
61880;BME280;47817;52.798;27.544;2023-05-25T10:32:17;1024.4;;;30.3;26
61880;BME280;47817;52.798;27.544;2023-05-25T10:37:17;1024.3;;;30.6;25.4
61880;BME280;47817;52.798;27.544;2023-05-25T10:41:27;1024.2;;;31;25.3
61880;BME280;47817;52.798;27.544;2023-05-25T10:47:01;1024.2;;;31.1;24.9
61880;BME280;47817;52.798;27.544;2023-05-25T10:51:41;1024.2;;;30.7;24.6
61880;BME280;47817;52.798;27.544;2023-05-25T10:56:27;1024.1;;;30.7;24.1
61880;BME280;47817;52.798;27.544;2023-05-25T11:02:13;1024.1;;;31;24.1
61880;BME280;47817;52.798;27.544;2023-05-25T11:07:08;1024.1;;;31;24.1
61880;BME280;47817;52.798;27.544;2023-05-25T11:12:01;1024.1;;;31.2;23.9
61880;BME280;47817;52.798;27.544;2023-05-25T11:16:39;1024.1;;;31.3;23.1
61880;BME280;47817;52.798;27.544;2023-05-25T11:22:16;1024;;;31.4;23.2
61880;BME280;47817;52.798;27.544;2023-05-25T11:26:33;1024;;;32;23
61880;BME280;47817;52.798;27.544;2023-05-25T11:31:59;1024;;;31.9;22.7
61880;BME280;47817;52.798;27.544;2023-05-25T11:37:15;1023.9;;;31.7;22.6
61880;BME280;47817;52.798;27.544;2023-05-25T11:42:07;1023.9;;;31.8;22.7
61880;BME280;47817;52.798;27.544;2023-05-25T11:46:27;1023.8;;;31.7;21.5
61880;BME280;47817;52.798;27.544;2023-05-25T11:52:03;1023.8;;;32;21.6
61880;BME280;47817;52.798;27.544;2023-05-25T11:56:30;1023.8;;;32.4;21.5
61880;BME280;47817;52.798;27.544;2023-05-25T12:01:54;1023.8;;;32.6;21.2
61880;BME280;47817;52.798;27.544;2023-05-25T12:06:28;1023.8;;;32.6;20.7
61880;BME280;47817;52.798;27.544;2023-05-25T12:12:07;1023.7;;;32.5;21
61880;BME280;47817;52.798;27.544;2023-05-25T12:17:01;1023.7;;;32.6;20.7
61880;BME280;47817;52.798;27.544;2023-05-25T12:22:01;1023.6;;;32.9;20.7
61880;BME280;47817;52.798;27.544;2023-05-25T12:27:15;1023.6;;;32.7;21.1
61880;BME280;47817;52.798;27.544;2023-05-25T12:32:01;1023.6;;;33.2;21
61880;BME280;47817;52.798;27.544;2023-05-25T12:36:44;1023.5;;;34.3;20.5
61880;BME280;47817;52.798;27.544;2023-05-25T12:41:58;1023.5;;;35.5;19.7
61880;BME280;47817;52.798;27.544;2023-05-25T12:47:08;1023.4;;;37.1;18.9
61880;BME280;47817;52.798;27.544;2023-05-25T12:52:30;1023.3;;;38.9;17.9
61880;BME280;47817;52.798;27.544;2023-05-25T12:56:52;1023.3;;;41.3;16.6
61880;BME280;47817;52.798;27.544;2023-05-25T13:01:57;1023.2;;;43;15.7
61880;BME280;47817;52.798;27.544;2023-05-25T13:06:43;1023.2;;;42.5;15.8
61880;BME280;47817;52.798;27.544;2023-05-25T13:11:27;1023.2;;;40.1;16.8
61880;BME280;47817;52.798;27.544;2023-05-25T13:16:39;1023.2;;;39.1;17.4
61880;BME280;47817;52.798;27.544;2023-05-25T13:21:52;1023.2;;;37.8;17.8
61880;BME280;47817;52.798;27.544;2023-05-25T13:26:27;1023.2;;;39.2;16.9
61880;BME280;47817;52.798;27.544;2023-05-25T13:32:15;1023.1;;;41.3;16
61880;BME280;47817;52.798;27.544;2023-05-25T13:37:03;1023;;;42.7;15.3
61880;BME280;47817;52.798;27.544;2023-05-25T13:42:17;1023;;;44.8;14.2
61880;BME280;47817;52.798;27.544;2023-05-25T13:46:39;1023;;;46.3;13.4
61880;BME280;47817;52.798;27.544;2023-05-25T13:51:53;1023;;;45.5;13.3
61880;BME280;47817;52.798;27.544;2023-05-25T13:57:01;1023;;;42.1;14.4
61880;BME280;47817;52.798;27.544;2023-05-25T14:01:39;1023;;;39.1;15.7
61880;BME280;47817;52.798;27.544;2023-05-25T14:07:13;1023;;;36.3;17.3
61880;BME280;47817;52.798;27.544;2023-05-25T14:12:07;1023.1;;;34.6;18.5
61880;BME280;47817;52.798;27.544;2023-05-25T14:16:45;1023.1;;;34.1;18.9
61880;BME280;47817;52.798;27.544;2023-05-25T14:21:59;1023;;;36.5;17.6
61880;BME280;47817;52.798;27.544;2023-05-25T14:26:51;1022.8;;;41.1;14.8
61880;BME280;47817;52.798;27.544;2023-05-25T14:31:27;1022.8;;;44.1;13.3
61880;BME280;47817;52.798;27.544;2023-05-25T14:36:41;1022.7;;;47.1;11.7
61880;BME280;47817;52.798;27.544;2023-05-25T14:42:05;1022.6;;;49.1;10.5
61880;BME280;47817;52.798;27.544;2023-05-25T14:47:01;1022.5;;;49.9;10.1
61880;BME280;47817;52.798;27.544;2023-05-25T14:51:59;1022.5;;;50.1;10.1
61880;BME280;47817;52.798;27.544;2023-05-25T14:56:59;1022.6;;;49.7;10
61880;BME280;47817;52.798;27.544;2023-05-25T15:02:03;1022.6;;;48.8;10.1
61880;BME280;47817;52.798;27.544;2023-05-25T15:06:39;1022.6;;;47.8;10.5
61880;BME280;47817;52.798;27.544;2023-05-25T15:11:51;1022.6;;;46.1;11
61880;BME280;47817;52.798;27.544;2023-05-25T15:17:17;1022.6;;;44.4;11.8
61880;BME280;47817;52.798;27.544;2023-05-25T15:22:17;1022.6;;;43.5;12
61880;BME280;47817;52.798;27.544;2023-05-25T15:26:39;1022.6;;;43.4;12.1
61880;BME280;47817;52.798;27.544;2023-05-25T15:32:01;1022.5;;;43.9;12
61880;BME280;47817;52.798;27.544;2023-05-25T15:36:45;1022.6;;;44.3;11.8
61880;BME280;47817;52.798;27.544;2023-05-25T15:41:45;1022.6;;;45.6;11
61880;BME280;47817;52.798;27.544;2023-05-25T15:46:39;1022.5;;;46.1;11
61880;BME280;47817;52.798;27.544;2023-05-25T15:51:51;1022.5;;;46;11
61880;BME280;47817;52.798;27.544;2023-05-25T15:56:39;1022.5;;;45.6;11.1
61880;BME280;47817;52.798;27.544;2023-05-25T16:02:07;1022.6;;;45.2;11.1
61880;BME280;47817;52.798;27.544;2023-05-25T16:07:01;1022.6;;;44.2;11.3
61880;BME280;47817;52.798;27.544;2023-05-25T16:12:15;1022.6;;;45.2;10.7
61880;BME280;47817;52.798;27.544;2023-05-25T16:16:59;1022.6;;;46;10.5
61880;BME280;47817;52.798;27.544;2023-05-25T16:22:07;1022.6;;;47.3;10.1
61880;BME280;47817;52.798;27.544;2023-05-25T16:26:59;1022.6;;;47.7;9.9
61880;BME280;47817;52.798;27.544;2023-05-25T16:31:39;1022.6;;;48.1;9.8
61880;BME280;47817;52.798;27.544;2023-05-25T16:37:15;1022.7;;;47.7;10
61880;BME280;47817;52.798;27.544;2023-05-25T16:42:15;1022.7;;;46.5;10.6
61880;BME280;47817;52.798;27.544;2023-05-25T16:46:45;1022.7;;;45.6;11.2
61880;BME280;47817;52.798;27.544;2023-05-25T16:51:59;1022.7;;;44.2;12.2
61880;BME280;47817;52.798;27.544;2023-05-25T16:56:51;1022.8;;;40.2;14.7
61880;BME280;47817;52.798;27.544;2023-05-25T17:01:45;1022.8;;;37.5;16.5
61880;BME280;47817;52.798;27.544;2023-05-25T17:07:15;1022.8;;;36.4;17.8
61880;BME280;47817;52.798;27.544;2023-05-25T17:11:53;1022.8;;;37.5;17.2
61880;BME280;47817;52.798;27.544;2023-05-25T17:17:15;1022.7;;;38.3;16.8
61880;BME280;47817;52.798;27.544;2023-05-25T17:21:39;1022.8;;;38.4;16.9
61880;BME280;47817;52.798;27.544;2023-05-25T17:26:59;1022.8;;;38;17.2
61880;BME280;47817;52.798;27.544;2023-05-25T17:31:45;1022.8;;;36.8;17.9
61880;BME280;47817;52.798;27.544;2023-05-25T17:36:51;1022.9;;;35.8;18.5
61880;BME280;47817;52.798;27.544;2023-05-25T17:41:51;1022.9;;;35.3;19.1
61880;BME280;47817;52.798;27.544;2023-05-25T17:47:07;1022.9;;;34.7;20.2
61880;BME280;47817;52.798;27.544;2023-05-25T17:52:15;1023;;;33.6;21.2
61880;BME280;47817;52.798;27.544;2023-05-25T17:57:15;1023.1;;;32.2;22.2
61880;BME280;47817;52.798;27.544;2023-05-25T18:02:11;1023.2;;;30.6;23.3
61880;BME280;47817;52.798;27.544;2023-05-25T18:06:27;1023.3;;;29.3;24.9
61880;BME280;47817;52.798;27.544;2023-05-25T18:11:46;1023.3;;;28.4;25.7
61880;BME280;47817;52.798;27.544;2023-05-25T18:16:49;1023.4;;;27.6;27.1
61880;BME280;47817;52.798;27.544;2023-05-25T18:22:15;1023.5;;;27.1;28
61880;BME280;47817;52.798;27.544;2023-05-25T18:26:53;1023.5;;;26.7;28.8
61880;BME280;47817;52.798;27.544;2023-05-25T18:32:07;1023.5;;;26.4;29.6
61880;BME280;47817;52.798;27.544;2023-05-25T18:37:01;1023.5;;;26.2;29.8
61880;BME280;47817;52.798;27.544;2023-05-25T18:42:13;1023.6;;;25.9;30.4
61880;BME280;47817;52.798;27.544;2023-05-25T18:46:39;1023.6;;;25.7;30.3
61880;BME280;47817;52.798;27.544;2023-05-25T18:51:39;1023.6;;;25.5;30.7
61880;BME280;47817;52.798;27.544;2023-05-25T18:56:59;1023.7;;;25.2;31.3
61880;BME280;47817;52.798;27.544;2023-05-25T19:01:39;1023.7;;;24.9;32.5
61880;BME280;47817;52.798;27.544;2023-05-25T19:07:15;1023.7;;;24.7;34
61880;BME280;47817;52.798;27.544;2023-05-25T19:12:13;1023.8;;;24.6;34.7
61880;BME280;47817;52.798;27.544;2023-05-25T19:17:15;1023.8;;;24.5;34.4
61880;BME280;47817;52.798;27.544;2023-05-25T19:21:57;1023.8;;;24.5;35.1
61880;BME280;47817;52.798;27.544;2023-05-25T19:26:39;1023.8;;;24.4;34.8
61880;BME280;47817;52.798;27.544;2023-05-25T19:31:27;1023.7;;;24.3;35
61880;BME280;47817;52.798;27.544;2023-05-25T19:37:15;1023.7;;;24.3;35.1
61880;BME280;47817;52.798;27.544;2023-05-25T19:41:41;1023.7;;;24.2;35.4
61880;BME280;47817;52.798;27.544;2023-05-25T19:47:15;1023.7;;;24.2;35.6
61880;BME280;47817;52.798;27.544;2023-05-25T19:51:51;1023.7;;;24.1;36.5
61880;BME280;47817;52.798;27.544;2023-05-25T19:57:15;1023.7;;;23.9;37.2
61880;BME280;47817;52.798;27.544;2023-05-25T20:01:33;1023.8;;;23.8;37.3
61880;BME280;47817;52.798;27.544;2023-05-25T20:06:39;1023.7;;;23.7;37.2
61880;BME280;47817;52.798;27.544;2023-05-25T20:11:39;1023.8;;;23.6;37.4
61880;BME280;47817;52.798;27.544;2023-05-25T20:17:13;1023.8;;;23.4;38.2
61880;BME280;47817;52.798;27.544;2023-05-25T20:21:47;1023.8;;;23.2;38.8
61880;BME280;47817;52.798;27.544;2023-05-25T20:27:15;1023.9;;;23;39.1
61880;BME280;47817;52.798;27.544;2023-05-25T20:32:17;1023.8;;;22.8;40.3
61880;BME280;47817;52.798;27.544;2023-05-25T20:36:27;1023.8;;;22.6;40.2
61880;BME280;47817;52.798;27.544;2023-05-25T20:41:39;1023.8;;;22.5;41.7
61880;BME280;47817;52.798;27.544;2023-05-25T20:46:51;1023.8;;;22.4;41.7
61880;BME280;47817;52.798;27.544;2023-05-25T20:52:17;1023.8;;;22.4;41.4
61880;BME280;47817;52.798;27.544;2023-05-25T20:56:53;1023.8;;;22.3;41.2
61880;BME280;47817;52.798;27.544;2023-05-25T21:02:08;1023.8;;;22.1;41.4
61880;BME280;47817;52.798;27.544;2023-05-25T21:07:00;1023.8;;;21.9;42.5
61880;BME280;47817;52.798;27.544;2023-05-25T21:12:16;1023.8;;;21.7;43
61880;BME280;47817;52.798;27.544;2023-05-25T21:16:59;1023.8;;;21.6;43.3
61880;BME280;47817;52.798;27.544;2023-05-25T21:21:54;1023.8;;;21.5;43.7
61880;BME280;47817;52.798;27.544;2023-05-25T21:26:30;1023.8;;;21.3;44.1
61880;BME280;47817;52.798;27.544;2023-05-25T21:31:51;1023.8;;;21.2;43.9
61880;BME280;47817;52.798;27.544;2023-05-25T21:37:16;1023.9;;;21;44.4
61880;BME280;47817;52.798;27.544;2023-05-25T21:42:16;1023.8;;;20.9;44.5
61880;BME280;47817;52.798;27.544;2023-05-25T21:46:28;1023.8;;;20.9;45
61880;BME280;47817;52.798;27.544;2023-05-25T21:52:00;1023.8;;;20.8;45.4
61880;BME280;47817;52.798;27.544;2023-05-25T21:56:52;1023.8;;;20.7;45.7
61880;BME280;47817;52.798;27.544;2023-05-25T22:01:28;1023.8;;;20.6;46.2
61880;BME280;47817;52.798;27.544;2023-05-25T22:07:12;1023.8;;;20.5;45.8
61880;BME280;47817;52.798;27.544;2023-05-25T22:12:06;1023.8;;;20.4;46.3
61880;BME280;47817;52.798;27.544;2023-05-25T22:17:14;1023.8;;;20.3;46.9
61880;BME280;47817;52.798;27.544;2023-05-25T22:21:28;1023.8;;;20.2;47.3
61880;BME280;47817;52.798;27.544;2023-05-25T22:27:14;1023.8;;;20;48
61880;BME280;47817;52.798;27.544;2023-05-25T22:31:46;1023.8;;;19.9;48.4
61880;BME280;47817;52.798;27.544;2023-05-25T22:36:28;1023.8;;;19.8;48.9
61880;BME280;47817;52.798;27.544;2023-05-25T22:41:28;1023.9;;;19.7;48.8
61880;BME280;47817;52.798;27.544;2023-05-25T22:47:06;1023.8;;;19.6;49
61880;BME280;47817;52.798;27.544;2023-05-25T22:52:16;1023.8;;;19.6;49.5
61880;BME280;47817;52.798;27.544;2023-05-25T22:57:16;1023.8;;;19.6;49
61880;BME280;47817;52.798;27.544;2023-05-25T23:02:12;1023.8;;;19.7;48.9
61880;BME280;47817;52.798;27.544;2023-05-25T23:06:44;1023.8;;;19.7;48.9
61880;BME280;47817;52.798;27.544;2023-05-25T23:11:38;1023.8;;;19.7;49.3
61880;BME280;47817;52.798;27.544;2023-05-25T23:16:50;1023.9;;;19.7;49.1
61880;BME280;47817;52.798;27.544;2023-05-25T23:22:14;1023.9;;;19.6;49.5
61880;BME280;47817;52.798;27.544;2023-05-25T23:26:40;1023.8;;;19.5;49.3
61880;BME280;47817;52.798;27.544;2023-05-25T23:31:54;1023.8;;;19.5;49.3
61880;BME280;47817;52.798;27.544;2023-05-25T23:36:58;1023.8;;;19.4;49.2
61880;BME280;47817;52.798;27.544;2023-05-25T23:42:14;1023.8;;;19.5;48.9
61880;BME280;47817;52.798;27.544;2023-05-25T23:46:58;1023.8;;;19.5;48.5
61880;BME280;47817;52.798;27.544;2023-05-25T23:51:40;1023.8;;;19.6;48.6
61880;BME280;47817;52.798;27.544;2023-05-25T23:56:30;1023.7;;;19.5;49.2
